Fishtail, MT

8:59 AM MST on November 27, 2014 (GMT -0700)
RAWS FISHTAIL MT US | Change Station
CLOSE
Current Station
Personal Weather Station
Location: Fishtail, MT
Elevation: 4549 ft
Nearby Weather Stations
Active Advisory: Wind Advisory Active Notice: Record Report

Elev 4549 ft 45.46 °N, 109.57 °W | Updated 37 minutes ago

Mostly Cloudy
Mostly Cloudy
48 °F
Feels Like 42 °F
N
15
Wind Variable Wind from West
Gusts 32.0 mph

Today
High -- | Low -- °F
--% Chance of Precip.
Yesterday
High -- | Low -- °F
Precip. -- in
7:32 AM 4:38 PM
Waxing Crescent, 30% visible
Pressure 29.96 in
Visibility 10.0 miles
Clouds Clear
Windchill 42 °F
Dew Point 25 °F
Humidity 41%
Rainfall 0.34 in
Snow Depth Not available.
UV 0 out of 12
Pollen .10 out of 12
Air Quality Not available.
Flu Activity Not available.
METAR KLVM 271553Z AUTO 22025G32KT 10SM CLR 09/M01 A2996 RMK AO2 PK WND 22038/1457 SLP143 T00891011

More Conditions Fewer Conditions

Pressure 29.96 in
Visibility 10.0 miles
Clouds Clear
Windchill 42 °F
Dew Point 25 °F
Humidity 41%
Rainfall 0.34 in
Snow Depth Not available.
UV 0 out of 12
Pollen .10 out of 12
Air Quality Not available.
Flu Activity Not available.
METAR KLVM 271553Z AUTO 22025G32KT 10SM CLR 09/M01 A2996 RMK AO2 PK WND 22038/1457 SLP143 T00891011

More Conditions Fewer Conditions

10-Day Weather Forecast

Almanac

Astronomy

Nov. 27, 2014 Rise Set
Actual Time
Civil Twilight
Nautical Twilight
Astronomical Twilight
Moon
Length of Visible Light
Length of Day
Tomorrow will be .
, % of the Moon is Illuminated

Today's Extremes

State Highs State Lows

Community

WunderPhotos

Upload Photos

1,774,019 photos uploaded!

WunderBlogs® & News

Nearby

Air Quality

  Air Quality AQ Index Pollutant
Not available.

Snow Depth

Station Depth Elevation

Earthquake Activity

City Distance Mag. Time & Date
Minimum magnitude displayed is 2.5.

Coastal Water Temperatures

Place Temperature

Nearby Weather Stations